Time;durP1;ratioP1;P1;durP2;ratioP2;P2;SDS_P1;SDS_P2;PMS_P1;PMS_P2;Temp;Humidity;BMP_temperature;BMP_pressure;BME280_temperature;BME280_humidity;BME280_pressure;Samples;Min_cycle;Max_cycle;Signal;HPM_P1;HPM_P2
2022/01/12 00:00:06;;;;;;;8.23;3.88;;;7.30;96.00;;;;;;5004016;28;20052;-48
2022/01/12 00:02:32;;;;;;;7.07;4.25;;;7.40;96.20;;;;;;5013178;28;20056;-49
2022/01/12 00:04:58;;;;;;;8.95;3.97;;;7.30;96.10;;;;;;5014153;28;20445;-49
2022/01/12 00:07:23;;;;;;;7.53;4.63;;;7.30;96.10;;;;;;5013436;28;20026;-48
2022/01/12 00:09:49;;;;;;;9.18;4.28;;;7.30;96.10;;;;;;5013751;28;20026;-48
2022/01/12 00:12:15;;;;;;;9.77;4.10;;;7.30;96.10;;;;;;5012029;28;20022;-49
2022/01/12 00:14:40;;;;;;;6.97;3.83;;;7.30;96.10;;;;;;4994327;28;20030;-48
2022/01/12 00:17:07;;;;;;;8.80;4.40;;;7.30;96.10;;;;;;4997292;28;20053;-49
2022/01/12 00:19:32;;;;;;;7.35;4.13;;;7.30;96.10;;;;;;5014461;28;20026;-48
2022/01/12 00:21:58;;;;;;;8.48;4.05;;;7.30;96.10;;;;;;5011676;28;20037;-48
2022/01/12 00:24:27;;;;;;;9.25;4.35;;;7.30;96.20;;;;;;5013435;28;20108;-49
2022/01/12 00:35:16;;;;;;;11.00;3.80;;;7.20;96.10;;;;;;5013690;28;20073;-48
2022/01/12 00:37:41;;;;;;;9.75;4.65;;;7.20;96.10;;;;;;5013492;28;20018;-48
2022/01/12 00:40:07;;;;;;;7.07;4.32;;;7.20;96.20;;;;;;5013279;28;20394;-49
2022/01/12 00:42:33;;;;;;;8.52;3.80;;;7.20;96.20;;;;;;5010651;28;20032;-48
2022/01/12 00:45:01;;;;;;;6.82;4.13;;;7.30;96.30;;;;;;4994244;28;20022;-48
2022/01/12 00:47:27;;;;;;;11.13;5.70;;;7.20;96.20;;;;;;4993514;28;20053;-48
2022/01/12 00:49:53;;;;;;;10.90;4.88;;;7.20;96.20;;;;;;5003236;28;20452;-48
2022/01/12 00:52:18;;;;;;;10.40;4.88;;;7.20;96.20;;;;;;5012456;28;20096;-48
2022/01/12 00:54:44;;;;;;;11.10;3.90;;;7.20;96.20;;;;;;5013190;28;20385;-48
2022/01/12 00:57:09;;;;;;;6.45;4.18;;;7.20;96.30;;;;;;5013521;28;20052;-49
2022/01/12 00:59:35;;;;;;;9.95;4.78;;;7.20;96.20;;;;;;4997520;28;20453;-48
2022/01/12 01:02:01;;;;;;;9.15;4.55;;;7.20;96.20;;;;;;5011402;28;20034;-49
2022/01/12 01:04:26;;;;;;;9.95;4.82;;;7.20;96.20;;;;;;5013314;28;20029;-49
2022/01/12 01:06:54;;;;;;;8.00;4.43;;;7.20;96.30;;;;;;5012828;28;20030;-48
2022/01/12 01:09:20;;;;;;;8.90;5.03;;;7.20;96.30;;;;;;5012630;28;20437;-49
2022/01/12 01:11:45;;;;;;;10.55;4.80;;;7.20;96.30;;;;;;5011931;28;20049;-49
2022/01/12 01:14:21;;;;;;;7.22;4.72;;;7.20;96.30;;;;;;4999844;28;20382;-48
2022/01/12 01:17:18;;;;;;;9.02;4.47;;;7.20;96.20;;;;;;4993281;28;20077;-48
2022/01/12 01:27:49;;;;;;;6.60;4.32;;;7.20;96.40;;;;;;5012476;28;20084;-48
2022/01/12 01:30:16;;;;;;;10.95;5.32;;;7.20;96.40;;;;;;5010062;28;20026;-48
2022/01/12 01:32:43;;;;;;;12.10;4.78;;;7.10;96.20;;;;;;5011677;28;20061;-48
2022/01/12 01:35:09;;;;;;;13.27;4.72;;;7.10;96.30;;;;;;5012499;28;20126;-49
2022/01/12 01:37:34;;;;;;;14.98;6.38;;;7.20;96.40;;;;;;5012209;28;20115;-49
2022/01/12 01:40:00;;;;;;;9.68;5.40;;;7.10;96.30;;;;;;5012740;28;20346;-49
2022/01/12 01:42:40;;;;;;;10.25;5.18;;;7.10;96.30;;;;;;5011327;28;20041;-49
2022/01/12 01:53:21;;;;;;;12.52;6.13;;;7.10;96.40;;;;;;5011458;28;20032;-48
2022/01/12 01:55:47;;;;;;;12.38;5.57;;;7.10;96.40;;;;;;5011985;28;20026;-48
2022/01/12 01:58:14;;;;;;;9.88;5.38;;;7.10;96.30;;;;;;5009395;28;20352;-48
2022/01/12 02:00:41;;;;;;;7.93;4.97;;;7.10;96.30;;;;;;4992256;28;20361;-48
2022/01/12 02:03:07;;;;;;;11.13;5.57;;;7.10;96.30;;;;;;4991617;28;20034;-48
2022/01/12 02:05:33;;;;;;;12.63;5.15;;;7.10;96.30;;;;;;4993028;28;20426;-48
2022/01/12 02:08:00;;;;;;;7.75;4.65;;;7.10;96.40;;;;;;4994561;28;20022;-48
2022/01/12 02:10:25;;;;;;;8.52;5.35;;;7.10;96.10;;;;;;5012144;28;20037;-48
2022/01/12 02:12:51;;;;;;;9.23;5.28;;;7.10;96.40;;;;;;5010392;28;20033;-48
2022/01/12 02:15:22;;;;;;;11.07;5.78;;;7.10;96.20;;;;;;4994841;28;20104;-49
2022/01/12 02:36:57;;;;;;;9.40;4.65;;;7.10;96.30;;;;;;4995334;28;20036;-48
2022/01/12 02:42:07;;;;;;;9.63;5.75;;;7.10;96.40;;;;;;5010125;28;20077;-49
2022/01/12 02:55:32;;;;;;;10.15;5.00;;;7.20;96.40;;;;;;5010725;28;20076;-48
2022/01/12 02:57:58;;;;;;;19.75;6.28;;;7.10;96.40;;;;;;5010909;28;20105;-48
2022/01/12 03:00:31;;;;;;;11.15;5.95;;;7.10;96.40;;;;;;4995833;28;20121;-48
2022/01/12 03:03:02;;;;;;;12.48;5.63;;;7.10;96.40;;;;;;4990591;28;20121;-48
2022/01/12 03:07:53;;;;;;;14.23;6.57;;;7.10;96.40;;;;;;5010991;28;20026;-49
2022/01/12 03:10:20;;;;;;;12.00;5.93;;;7.10;96.40;;;;;;5011575;28;20449;-48
2022/01/12 03:12:46;;;;;;;10.10;5.47;;;7.10;96.40;;;;;;5010184;28;20030;-49
2022/01/12 03:15:12;;;;;;;11.25;5.95;;;7.10;96.30;;;;;;4996169;28;20038;-48
2022/01/12 03:17:38;;;;;;;11.93;5.47;;;7.10;96.50;;;;;;5009507;28;20215;-49
2022/01/12 03:20:06;;;;;;;11.43;6.47;;;7.10;96.50;;;;;;5011270;28;20030;-48
2022/01/12 03:22:32;;;;;;;10.40;5.80;;;7.10;96.30;;;;;;5001081;28;20033;-48
2022/01/12 03:24:58;;;;;;;13.52;5.90;;;7.10;96.30;;;;;;5008087;28;20022;-48
2022/01/12 03:27:26;;;;;;;12.00;6.20;;;7.20;96.40;;;;;;5009888;28;20500;-48
2022/01/12 03:29:55;;;;;;;11.70;5.60;;;7.20;96.30;;;;;;5001566;28;20450;-49
2022/01/12 03:32:28;;;;;;;15.90;7.07;;;7.20;96.30;;;;;;4990733;28;20038;-49
2022/01/12 03:35:05;;;;;;;11.10;5.82;;;7.10;96.20;;;;;;4990540;28;20372;-48
2022/01/12 03:37:53;;;;;;;12.13;5.60;;;7.10;96.30;;;;;;4997580;28;20030;-48
2022/01/12 03:40:19;;;;;;;14.35;6.30;;;7.10;96.30;;;;;;5010949;28;20088;-49
2022/01/12 03:42:45;;;;;;;11.82;6.38;;;7.20;96.40;;;;;;5009783;28;20026;-48
2022/01/12 03:45:10;;;;;;;12.55;5.65;;;7.20;96.30;;;;;;4999924;28;20036;-49
2022/01/12 03:47:36;;;;;;;10.15;5.28;;;7.10;96.20;;;;;;4992854;28;20319;-49
2022/01/12 03:50:02;;;;;;;12.18;5.82;;;7.10;96.30;;;;;;5010865;28;20029;-49
2022/01/12 03:52:27;;;;;;;13.27;6.05;;;7.10;96.30;;;;;;5009852;28;20442;-48
2022/01/12 03:54:53;;;;;;;14.35;6.63;;;7.10;96.30;;;;;;5010388;28;20034;-49
2022/01/12 03:57:19;;;;;;;14.02;7.05;;;7.10;96.30;;;;;;5014324;28;20045;-48
2022/01/12 03:59:44;;;;;;;11.73;6.13;;;7.10;96.30;;;;;;5007721;28;20026;-49
2022/01/12 04:02:10;;;;;;;10.75;5.97;;;7.20;96.40;;;;;;4993192;28;20034;-48
2022/01/12 04:04:52;;;;;;;11.00;5.57;;;7.20;96.30;;;;;;4994368;28;20127;-49
2022/01/12 04:10:02;;;;;;;11.40;6.00;;;7.20;96.30;;;;;;5005883;28;20420;-48
2022/01/12 04:12:29;;;;;;;10.57;5.93;;;7.10;96.30;;;;;;5012948;28;20018;-48
2022/01/12 04:14:54;;;;;;;13.77;6.60;;;7.20;96.30;;;;;;5012662;28;20069;-48
2022/01/12 04:17:20;;;;;;;11.93;6.05;;;7.20;96.40;;;;;;5014257;28;20045;-48
2022/01/12 04:19:47;;;;;;;12.57;6.15;;;7.20;96.40;;;;;;5013837;28;20516;-49
2022/01/12 04:24:57;;;;;;;14.05;7.55;;;7.20;96.30;;;;;;5013559;28;20440;-48
2022/01/12 04:27:23;;;;;;;12.82;5.93;;;7.20;96.30;;;;;;5013959;28;20441;-49
2022/01/12 04:29:48;;;;;;;15.75;6.25;;;7.20;96.30;;;;;;5009753;28;20035;-49
2022/01/12 04:32:14;;;;;;;11.95;6.28;;;7.20;96.40;;;;;;5011480;28;20033;-49
2022/01/12 04:34:40;;;;;;;13.35;7.00;;;7.20;96.30;;;;;;5012907;28;20038;-49
2022/01/12 04:37:05;;;;;;;14.15;7.30;;;7.20;96.30;;;;;;5010286;28;20022;-49
2022/01/12 04:39:31;;;;;;;14.48;6.50;;;7.20;96.30;;;;;;5004130;28;20129;-48
2022/01/12 04:41:57;;;;;;;13.77;6.32;;;7.20;96.30;;;;;;5004452;28;20026;-49
2022/01/12 04:44:22;;;;;;;16.33;7.32;;;7.20;96.30;;;;;;4994037;28;20054;-49
2022/01/12 04:46:52;;;;;;;14.75;6.03;;;7.20;96.20;;;;;;4993755;28;20026;-49
2022/01/12 04:49:47;;;;;;;16.40;7.03;;;7.10;96.30;;;;;;4993922;28;20026;-49
2022/01/12 04:52:12;;;;;;;13.02;7.00;;;7.10;96.30;;;;;;5000404;28;20429;-48
2022/01/12 04:54:38;;;;;;;10.88;5.93;;;7.20;96.30;;;;;;5012914;28;20096;-49
2022/01/12 04:57:04;;;;;;;14.02;6.45;;;7.20;96.30;;;;;;5013061;28;20058;-48
2022/01/12 04:59:31;;;;;;;11.75;6.72;;;7.20;96.30;;;;;;5013119;28;20076;-49
2022/01/12 05:02:10;;;;;;;16.35;6.25;;;7.20;96.30;;;;;;4992681;28;20113;-48
2022/01/12 05:07:41;;;;;;;15.90;6.47;;;7.20;96.20;;;;;;4992774;28;20085;-48
2022/01/12 05:12:52;;;;;;;12.48;5.95;;;7.20;96.20;;;;;;5012730;28;20026;-49
2022/01/12 05:15:25;;;;;;;13.00;6.53;;;7.20;96.20;;;;;;5007881;28;20418;-48
2022/01/12 05:17:51;;;;;;;10.80;6.20;;;7.10;96.20;;;;;;4993512;28;20023;-48
2022/01/12 05:20:17;;;;;;;11.02;6.45;;;7.10;96.20;;;;;;5002119;28;20022;-49
2022/01/12 05:22:43;;;;;;;13.00;6.93;;;7.20;96.30;;;;;;5012112;28;20033;-48
2022/01/12 05:25:08;;;;;;;10.70;5.57;;;7.20;96.20;;;;;;5012698;28;20415;-49
2022/01/12 05:27:34;;;;;;;13.55;5.78;;;7.10;96.20;;;;;;5012907;28;20022;-49
2022/01/12 05:30:00;;;;;;;8.75;5.30;;;7.20;96.30;;;;;;5011055;28;20030;-48
2022/01/12 05:32:26;;;;;;;8.52;5.47;;;7.10;96.20;;;;;;5007299;28;20030;-49
2022/01/12 05:34:58;;;;;;;13.82;5.78;;;7.10;96.20;;;;;;5012852;28;20038;-48
2022/01/12 05:37:23;;;;;;;16.27;6.55;;;7.20;96.30;;;;;;5012385;28;20030;-49
2022/01/12 05:39:49;;;;;;;13.73;6.32;;;7.20;96.30;;;;;;5012614;28;20022;-48
2022/01/12 05:42:14;;;;;;;12.45;5.88;;;7.20;96.20;;;;;;5007377;28;20037;-48
2022/01/12 05:44:42;;;;;;;10.50;5.68;;;7.20;96.30;;;;;;4996197;28;20517;-49
2022/01/12 05:47:17;;;;;;;14.20;6.53;;;7.20;96.20;;;;;;4998028;28;20053;-48
2022/01/12 05:49:45;;;;;;;16.90;5.90;;;7.20;96.30;;;;;;4999704;28;20109;-49
2022/01/12 05:52:11;;;;;;;12.23;5.75;;;7.20;96.30;;;;;;4999911;28;20105;-48
2022/01/12 05:54:38;;;;;;;11.95;6.32;;;7.20;96.30;;;;;;5011332;28;20042;-49
2022/01/12 05:57:04;;;;;;;13.00;5.82;;;7.10;96.20;;;;;;5012772;28;20022;-48
2022/01/12 05:59:29;;;;;;;16.70;6.82;;;7.20;96.30;;;;;;5012225;28;20088;-49
2022/01/12 06:01:55;;;;;;;17.75;7.45;;;7.20;96.30;;;;;;4996516;28;20034;-49
2022/01/12 06:04:21;;;;;;;15.05;6.40;;;7.20;96.20;;;;;;5011419;28;20034;-49
2022/01/12 06:06:46;;;;;;;10.65;5.72;;;7.10;96.20;;;;;;5012064;28;20226;-49
2022/01/12 06:09:12;;;;;;;12.05;6.07;;;7.20;96.30;;;;;;5012157;28;20709;-48
2022/01/12 06:11:38;;;;;;;17.83;6.75;;;7.20;96.30;;;;;;5011065;28;20456;-49
2022/01/12 06:14:04;;;;;;;17.35;7.05;;;7.10;96.20;;;;;;5011517;28;20030;-49
2022/01/12 06:16:29;;;;;;;15.10;6.85;;;7.20;96.30;;;;;;5001119;28;20366;-48
2022/01/12 06:18:56;;;;;;;11.75;6.40;;;7.20;96.20;;;;;;4991258;28;20479;-48
2022/01/12 06:21:23;;;;;;;9.38;5.25;;;7.10;96.20;;;;;;4992773;28;20033;-49
2022/01/12 06:23:49;;;;;;;13.48;5.97;;;7.20;96.20;;;;;;5002135;28;20040;-48
2022/01/12 06:26:14;;;;;;;14.75;6.30;;;7.20;96.30;;;;;;5001649;28;20314;-49
2022/01/12 06:28:43;;;;;;;13.98;6.05;;;7.10;96.20;;;;;;5008299;28;20033;-48
2022/01/12 06:31:10;;;;;;;9.63;4.88;;;7.10;95.80;;;;;;5006079;28;20365;-48
2022/01/12 06:33:38;;;;;;;10.10;5.15;;;7.20;95.70;;;;;;5006409;28;20397;-49
2022/01/12 06:36:04;;;;;;;13.65;4.90;;;7.20;95.60;;;;;;5007112;28;20025;-48
2022/01/12 06:38:29;;;;;;;11.90;5.60;;;7.20;95.60;;;;;;5008726;28;20033;-49
2022/01/12 06:40:55;;;;;;;13.07;6.43;;;7.20;95.50;;;;;;5004000;28;20101;-48
2022/01/12 06:43:21;;;;;;;9.15;4.85;;;7.20;95.50;;;;;;5004002;28;21620;-49
2022/01/12 06:45:46;;;;;;;9.07;4.90;;;7.20;95.60;;;;;;5001266;28;20030;-48
2022/01/12 06:48:12;;;;;;;12.65;6.13;;;7.20;95.60;;;;;;5005974;28;20060;-49
2022/01/12 06:50:38;;;;;;;10.68;4.80;;;7.20;95.50;;;;;;5005869;28;20322;-48
2022/01/12 06:53:03;;;;;;;9.57;5.38;;;7.20;95.50;;;;;;5001408;28;20459;-49
2022/01/12 06:55:29;;;;;;;15.68;6.28;;;7.10;95.50;;;;;;5007601;28;20044;-49
2022/01/12 06:57:54;;;;;;;9.30;4.90;;;7.20;95.50;;;;;;5005234;28;20105;-49
2022/01/12 07:00:20;;;;;;;7.97;4.55;;;7.10;95.50;;;;;;5005764;28;20113;-49
2022/01/12 07:02:45;;;;;;;10.27;4.88;;;7.20;95.50;;;;;;5007463;28;20030;-49
2022/01/12 07:05:11;;;;;;;10.75;4.72;;;7.20;95.50;;;;;;5006146;28;20044;-49
2022/01/12 07:07:37;;;;;;;9.55;5.18;;;7.20;95.50;;;;;;5010543;28;20030;-49
2022/01/12 07:10:03;;;;;;;10.68;5.03;;;7.20;95.50;;;;;;5007462;28;20432;-49
2022/01/12 07:12:28;;;;;;;12.68;6.00;;;7.20;95.50;;;;;;5006695;28;20037;-50
2022/01/12 07:14:54;;;;;;;16.73;5.75;;;7.10;95.50;;;;;;5006286;28;20464;-50
2022/01/12 07:17:20;;;;;;;7.68;4.43;;;7.20;95.50;;;;;;5004507;28;20083;-49
2022/01/12 07:19:45;;;;;;;14.73;5.03;;;7.20;95.50;;;;;;5008900;28;20034;-49
2022/01/12 07:22:11;;;;;;;12.38;6.30;;;7.10;95.40;;;;;;5008534;28;20037;-49
2022/01/12 07:24:37;;;;;;;9.80;5.80;;;7.10;95.50;;;;;;5010511;28;20036;-49
2022/01/12 07:27:02;;;;;;;11.13;6.03;;;7.10;95.50;;;;;;5009945;28;20433;-49
2022/01/12 07:29:28;;;;;;;11.55;5.45;;;7.20;95.50;;;;;;5005131;28;20113;-49
2022/01/12 07:31:54;;;;;;;11.80;5.65;;;7.20;95.50;;;;;;5010858;28;20345;-49
2022/01/12 07:34:19;;;;;;;15.88;6.05;;;7.20;95.50;;;;;;5013403;28;20120;-50
2022/01/12 07:36:45;;;;;;;12.82;6.22;;;7.20;95.50;;;;;;5013896;28;20361;-49
2022/01/12 07:39:11;;;;;;;14.50;6.97;;;7.20;95.60;;;;;;5014262;28;20018;-49
2022/01/12 07:41:37;;;;;;;18.52;8.10;;;7.20;95.50;;;;;;5012805;28;20076;-49
2022/01/12 07:44:03;;;;;;;13.13;5.68;;;7.10;95.40;;;;;;5012631;28;20031;-49
2022/01/12 07:46:28;;;;;;;14.30;6.68;;;7.10;95.40;;;;;;5003376;28;20041;-49
2022/01/12 07:48:54;;;;;;;14.52;6.63;;;7.10;95.40;;;;;;5008520;28;20044;-49
2022/01/12 07:51:20;;;;;;;13.05;5.88;;;7.20;95.50;;;;;;5003906;28;20377;-49
2022/01/12 07:53:46;;;;;;;1.95;1.60;;;7.10;95.50;;;;;;5005304;28;20030;-49
2022/01/12 07:56:12;;;;;;;9.98;5.10;;;7.20;95.40;;;;;;5012597;28;20026;-49
2022/01/12 07:58:38;;;;;;;13.00;4.50;;;7.10;95.40;;;;;;5012228;28;20026;-49
2022/01/12 08:01:04;;;;;;;16.65;6.40;;;7.10;95.40;;;;;;5012549;28;20030;-50
2022/01/12 08:03:29;;;;;;;12.77;6.72;;;7.20;95.40;;;;;;5008676;28;20507;-49
2022/01/12 08:05:56;;;;;;;20.33;7.28;;;7.20;95.40;;;;;;5009206;28;20034;-49
2022/01/12 08:08:22;;;;;;;12.60;5.60;;;7.20;95.40;;;;;;5013728;28;20109;-49
2022/01/12 08:10:48;;;;;;;13.18;5.70;;;7.10;95.30;;;;;;5012960;28;20112;-49
2022/01/12 08:13:13;;;;;;;14.50;6.90;;;7.20;95.40;;;;;;5013033;28;20030;-49
2022/01/12 08:15:39;;;;;;;13.98;6.90;;;7.10;95.40;;;;;;5012341;28;20088;-49
2022/01/12 08:18:05;;;;;;;11.82;5.80;;;7.20;95.40;;;;;;5007606;28;20624;-49
2022/01/12 08:20:31;;;;;;;14.75;6.90;;;7.20;95.40;;;;;;5012653;28;20025;-49
2022/01/12 08:22:57;;;;;;;16.65;8.07;;;7.10;95.40;;;;;;5011645;28;20061;-49
2022/01/12 08:25:23;;;;;;;11.80;5.75;;;7.20;95.40;;;;;;5008486;28;20037;-49
2022/01/12 08:27:50;;;;;;;8.35;4.55;;;7.20;95.40;;;;;;5012831;28;20185;-49
2022/01/12 08:30:18;;;;;;;11.80;6.15;;;7.20;95.40;;;;;;5009286;28;20108;-49
2022/01/12 08:32:47;;;;;;;8.80;5.00;;;7.20;95.40;;;;;;5005881;28;20540;-49
2022/01/12 08:35:14;;;;;;;14.73;5.85;;;7.20;95.30;;;;;;5012053;28;20118;-49
2022/01/12 08:37:39;;;;;;;18.67;7.57;;;7.20;95.40;;;;;;5012382;28;20014;-49
2022/01/12 08:40:06;;;;;;;9.55;4.70;;;7.20;95.40;;;;;;5011484;28;20491;-49
2022/01/12 08:42:32;;;;;;;10.93;6.05;;;7.20;95.30;;;;;;5006804;28;20054;-49
2022/01/12 08:44:59;;;;;;;18.65;6.22;;;7.20;95.30;;;;;;5009347;28;20065;-49
2022/01/12 08:47:25;;;;;;;9.50;3.90;;;7.20;95.30;;;;;;5008158;28;20033;-49
2022/01/12 08:49:51;;;;;;;8.05;4.75;;;7.20;95.30;;;;;;5009896;28;20423;-49
2022/01/12 08:52:17;;;;;;;10.23;4.15;;;7.20;95.30;;;;;;5011842;28;20425;-49
2022/01/12 08:54:43;;;;;;;7.82;4.28;;;7.20;95.20;;;;;;5010705;28;20037;-49
2022/01/12 08:57:08;;;;;;;13.80;5.13;;;7.20;95.20;;;;;;5011790;28;20092;-49
2022/01/12 08:59:34;;;;;;;8.82;4.00;;;7.20;95.20;;;;;;5011828;28;20460;-49
2022/01/12 09:02:00;;;;;;;15.73;6.70;;;7.20;95.20;;;;;;5007073;28;20033;-49
2022/01/12 09:04:27;;;;;;;16.33;6.97;;;7.20;95.20;;;;;;5007474;28;20449;-49
2022/01/12 09:06:53;;;;;;;7.65;3.50;;;7.20;95.20;;;;;;5011529;28;20034;-50
2022/01/12 09:09:19;;;;;;;11.18;5.50;;;7.20;95.20;;;;;;5011127;28;20460;-49
2022/01/12 09:11:44;;;;;;;7.85;4.88;;;7.20;95.30;;;;;;5010521;28;20026;-49
2022/01/12 09:14:10;;;;;;;14.40;6.18;;;7.20;95.20;;;;;;5010425;28;20246;-49
2022/01/12 09:16:35;;;;;;;11.55;5.95;;;7.20;95.20;;;;;;5010901;28;20261;-49
2022/01/12 09:19:01;;;;;;;10.43;5.20;;;7.20;95.30;;;;;;5007031;28;20040;-49
2022/01/12 09:21:28;;;;;;;9.25;5.07;;;7.20;95.30;;;;;;5004640;28;20041;-49
2022/01/12 09:23:54;;;;;;;11.20;5.35;;;7.20;95.20;;;;;;5008973;28;20105;-49
2022/01/12 09:26:20;;;;;;;9.52;4.70;;;7.20;95.20;;;;;;5011477;28;20105;-49
2022/01/12 09:28:47;;;;;;;10.02;5.95;;;7.20;95.20;;;;;;5011646;28;20022;-49
2022/01/12 09:31:13;;;;;;;11.27;5.97;;;7.20;95.10;;;;;;5007996;28;20116;-49
2022/01/12 09:33:39;;;;;;;11.20;6.18;;;7.30;95.10;;;;;;5004869;28;20141;-49
2022/01/12 09:36:05;;;;;;;11.98;5.60;;;7.30;95.20;;;;;;5007355;28;20040;-49
2022/01/12 09:38:31;;;;;;;12.07;4.63;;;7.30;95.20;;;;;;5005593;28;20026;-49
2022/01/12 09:40:56;;;;;;;11.95;6.10;;;7.30;95.10;;;;;;5011359;28;20456;-49
2022/01/12 09:43:24;;;;;;;10.90;5.50;;;7.30;95.20;;;;;;5009491;28;20461;-49
2022/01/12 09:45:52;;;;;;;17.83;7.32;;;7.30;95.10;;;;;;5009835;28;20018;-49
2022/01/12 09:48:21;;;;;;;16.15;7.70;;;7.30;95.20;;;;;;5009290;28;20368;-49
2022/01/12 09:50:47;;;;;;;15.15;7.32;;;7.30;95.20;;;;;;5011262;28;20026;-49
2022/01/12 09:53:13;;;;;;;13.90;6.72;;;7.20;95.20;;;;;;5009997;28;20108;-49
2022/01/12 09:55:38;;;;;;;15.77;7.60;;;7.30;95.30;;;;;;5011005;28;20178;-49
2022/01/12 09:58:04;;;;;;;12.77;6.70;;;7.30;95.30;;;;;;5011115;28;20033;-49
2022/01/12 10:00:29;;;;;;;13.63;6.32;;;7.20;95.30;;;;;;5011233;28;20026;-49
2022/01/12 10:02:57;;;;;;;14.15;7.60;;;7.20;95.30;;;;;;5005906;28;20030;-49
2022/01/12 10:05:31;;;;;;;13.73;7.05;;;7.20;95.30;;;;;;5007670;28;20068;-49
2022/01/12 10:08:11;;;;;;;15.77;6.68;;;7.20;95.30;;;;;;5010433;28;20029;-49
2022/01/12 10:10:36;;;;;;;9.35;4.70;;;7.30;95.30;;;;;;5009962;28;20607;-49
2022/01/12 10:13:02;;;;;;;15.80;6.88;;;7.30;95.30;;;;;;5009820;28;20117;-49
2022/01/12 10:15:29;;;;;;;13.73;7.20;;;7.30;95.30;;;;;;5010882;28;20037;-49
2022/01/12 10:18:01;;;;;;;15.27;7.03;;;7.30;95.30;;;;;;5009144;28;20342;-49
2022/01/12 10:20:27;;;;;;;19.63;8.82;;;7.30;95.30;;;;;;5007186;28;20354;-49
2022/01/12 10:23:00;;;;;;;25.90;10.15;;;7.30;95.30;;;;;;5008103;28;20026;-49
2022/01/12 10:25:28;;;;;;;14.65;7.80;;;7.30;95.40;;;;;;5009042;28;20093;-49
2022/01/12 10:27:54;;;;;;;13.35;6.15;;;7.30;95.40;;;;;;5010637;28;20044;-49
2022/01/12 10:30:24;;;;;;;14.40;6.45;;;7.30;95.70;;;;;;5009881;28;20025;-49
2022/01/12 10:33:06;;;;;;;15.60;7.13;;;7.30;95.40;;;;;;5006062;28;20042;-49
2022/01/12 10:35:35;;;;;;;26.90;10.48;;;7.30;95.40;;;;;;5006583;28;20074;-49
2022/01/12 10:38:12;;;;;;;12.20;6.05;;;7.30;95.40;;;;;;5007952;28;20037;-49
2022/01/12 10:40:56;;;;;;;16.77;7.32;;;7.30;95.40;;;;;;5001671;28;20036;-49
2022/01/12 10:43:34;;;;;;;15.35;6.85;;;7.30;95.40;;;;;;5005752;28;20026;-49
2022/01/12 10:46:03;;;;;;;14.52;6.10;;;7.30;95.40;;;;;;5002812;28;20070;-49
2022/01/12 10:48:49;;;;;;;15.60;6.22;;;7.40;95.40;;;;;;5006042;28;20465;-49
2022/01/12 10:51:20;;;;;;;17.05;8.02;;;7.40;95.30;;;;;;5009441;28;20014;-49
2022/01/12 10:53:46;;;;;;;;;;;7.40;95.40;;;;;;5004988;28;20475;-49
2022/01/12 10:56:17;;;;;;;21.45;8.10;;;7.40;95.40;;;;;;5009740;28;19913;-49
2022/01/12 10:58:44;;;;;;;11.18;4.22;;;7.40;95.50;;;;;;5008076;28;20030;-49
2022/01/12 11:01:11;;;;;;;8.50;4.82;;;7.40;95.30;;;;;;5009339;28;20045;-49
2022/01/12 11:03:38;;;;;;;13.18;5.13;;;7.40;95.30;;;;;;5006100;28;20026;-49
2022/01/12 11:06:06;;;;;;;9.20;4.45;;;7.50;95.30;;;;;;5009914;28;20061;-49
2022/01/12 11:08:34;;;;;;;18.17;8.27;;;7.50;95.40;;;;;;5008506;28;20112;-49
2022/01/12 11:11:00;;;;;;;18.48;7.88;;;7.40;95.50;;;;;;5009573;28;20025;-49
2022/01/12 11:13:28;;;;;;;14.95;6.90;;;7.40;95.60;;;;;;5009617;28;20026;-49
2022/01/12 11:15:56;;;;;;;17.73;8.68;;;7.40;95.60;;;;;;5010067;28;20424;-49
2022/01/12 11:18:28;;;;;;;19.60;8.60;;;7.50;95.60;;;;;;5005729;28;20130;-49
2022/01/12 11:20:59;;;;;;;14.85;7.75;;;7.50;95.70;;;;;;5009891;28;20022;-49
2022/01/12 11:23:37;;;;;;;12.75;6.95;;;7.50;95.70;;;;;;5006483;28;20023;-49
2022/01/12 11:26:23;;;;;;;14.57;7.28;;;7.50;95.70;;;;;;5008763;28;20058;-49
2022/01/12 11:28:51;;;;;;;20.55;7.57;;;7.50;95.70;;;;;;5009588;28;20372;-49
2022/01/12 11:31:30;;;;;;;16.80;6.43;;;7.50;95.80;;;;;;5008991;28;20352;-49
2022/01/12 11:33:56;;;;;;;14.73;7.32;;;7.50;95.80;;;;;;5004870;28;20565;-49
2022/01/12 11:36:24;;;;;;;12.90;7.43;;;7.50;95.90;;;;;;5009246;28;20053;-49
2022/01/12 11:38:58;;;;;;;16.70;8.35;;;7.50;95.90;;;;;;5008948;28;20030;-49
2022/01/12 11:41:26;;;;;;;17.67;7.55;;;7.50;95.90;;;;;;5007730;28;20029;-49
2022/01/12 11:44:00;;;;;;;16.98;8.55;;;7.50;95.90;;;;;;5008992;28;20481;-50
2022/01/12 11:46:42;;;;;;;16.63;8.65;;;7.50;95.90;;;;;;5009709;28;20064;-49
2022/01/12 11:49:07;;;;;;;18.10;7.22;;;7.50;95.90;;;;;;5006127;28;20357;-49
2022/01/12 11:51:33;;;;;;;12.90;7.30;;;7.50;95.90;;;;;;5007969;28;20030;-49
2022/01/12 11:54:11;;;;;;;19.83;8.13;;;7.50;95.90;;;;;;5009181;28;20041;-49
2022/01/12 11:56:49;;;;;;;20.42;9.00;;;7.50;95.90;;;;;;5008682;28;20030;-49
2022/01/12 11:59:15;;;;;;;23.33;9.07;;;7.50;96.00;;;;;;5007555;28;20030;-49
2022/01/12 12:01:49;;;;;;;15.38;7.78;;;7.50;96.00;;;;;;5005383;28;20045;-49
2022/01/12 12:04:30;;;;;;;18.38;9.23;;;7.60;96.00;;;;;;5007089;28;20030;-49
2022/01/12 12:07:14;;;;;;;17.48;8.23;;;7.50;96.10;;;;;;5009518;28;20026;-49
2022/01/12 12:09:44;;;;;;;19.10;9.43;;;7.50;96.10;;;;;;5006733;28;20030;-49
2022/01/12 12:12:16;;;;;;;18.33;9.13;;;7.50;96.20;;;;;;5007062;28;20608;-49
2022/01/12 12:14:50;;;;;;;16.00;8.43;;;7.50;96.20;;;;;;5008476;28;20099;-49
2022/01/12 12:17:17;;;;;;;17.50;8.80;;;7.50;96.20;;;;;;5009847;28;20357;-49
2022/01/12 12:19:43;;;;;;;21.00;10.10;;;7.50;96.20;;;;;;5009181;28;20044;-49
2022/01/12 12:22:15;;;;;;;20.48;7.82;;;7.50;96.10;;;;;;5010564;28;20445;-49
2022/01/12 12:24:42;;;;;;;19.17;9.18;;;7.50;96.30;;;;;;5009510;28;20492;-49
2022/01/12 12:27:11;;;;;;;16.02;7.68;;;7.60;96.30;;;;;;5013145;28;20017;-49
2022/01/12 12:29:38;;;;;;;21.63;8.95;;;7.50;96.20;;;;;;5011874;28;20042;-49
2022/01/12 12:32:06;;;;;;;21.05;10.50;;;7.50;96.30;;;;;;5011080;28;20113;-49
2022/01/12 12:34:33;;;;;;;17.77;8.00;;;7.50;96.10;;;;;;5003483;28;20048;-49
2022/01/12 12:37:07;;;;;;;19.40;8.88;;;7.50;96.20;;;;;;5007191;28;20083;-49
2022/01/12 12:39:39;;;;;;;20.50;8.13;;;7.50;96.30;;;;;;5012146;28;20022;-50
2022/01/12 12:42:19;;;;;;;17.80;8.27;;;7.60;96.50;;;;;;5011132;28;20026;-50
2022/01/12 12:44:47;;;;;;;15.65;8.00;;;7.50;96.30;;;;;;5011208;28;20022;-49
2022/01/12 12:47:18;;;;;;;18.30;8.82;;;7.60;96.20;;;;;;5011362;28;20037;-49
2022/01/12 12:49:58;;;;;;;21.10;9.57;;;7.60;96.30;;;;;;5010428;28;20401;-49
2022/01/12 12:52:31;;;;;;;16.98;8.55;;;7.60;96.50;;;;;;5008269;28;20082;-49
2022/01/12 12:55:00;;;;;;;17.02;5.50;;;7.70;96.50;;;;;;5012086;28;20030;-49
2022/01/12 12:57:28;;;;;;;14.95;8.60;;;7.70;96.30;;;;;;5012490;28;20438;-49
2022/01/12 13:00:12;;;;;;;17.77;8.00;;;7.80;96.30;;;;;;5011502;28;20045;-50
2022/01/12 13:02:41;;;;;;;16.05;7.13;;;7.80;96.30;;;;;;5009850;28;20091;-50
2022/01/12 13:05:10;;;;;;;17.10;8.98;;;7.70;96.20;;;;;;5005336;28;20041;-49
2022/01/12 13:07:44;;;;;;;16.60;8.75;;;7.70;96.20;;;;;;5010875;28;20022;-49
2022/01/12 13:10:14;;;;;;;16.65;7.80;;;7.70;96.30;;;;;;5011007;28;20468;-49
2022/01/12 13:12:46;;;;;;;19.92;10.38;;;7.70;96.20;;;;;;5010520;28;20022;-49
2022/01/12 13:15:30;;;;;;;15.98;5.93;;;7.70;96.20;;;;;;5012314;28;20036;-49
2022/01/12 13:18:04;;;;;;;16.30;7.60;;;7.70;96.20;;;;;;5009677;28;20460;-49
2022/01/12 13:23:22;;;;;;;19.67;9.52;;;7.70;96.20;;;;;;5010049;28;20024;-49
2022/01/12 13:25:52;;;;;;;23.20;8.88;;;7.70;96.20;;;;;;5011215;28;20107;-49
2022/01/12 13:28:19;;;;;;;21.73;9.53;;;7.70;96.20;;;;;;5011427;28;20029;-49
2022/01/12 13:30:58;;;;;;;15.38;7.85;;;7.70;96.20;;;;;;5010385;28;20080;-49
2022/01/12 13:33:37;;;;;;;14.93;6.68;;;7.70;96.20;;;;;;5010725;28;20030;-49
2022/01/12 13:36:18;;;;;;;13.68;7.65;;;7.70;96.10;;;;;;5007448;28;20046;-49
2022/01/12 13:38:47;;;;;;;18.45;9.18;;;7.70;96.10;;;;;;5010580;28;20346;-49
2022/01/12 13:41:19;;;;;;;20.40;10.13;;;7.70;96.10;;;;;;5010666;28;20026;-49
2022/01/12 13:43:48;;;;;;;16.58;7.63;;;7.70;96.10;;;;;;5010825;28;20025;-49
2022/01/12 13:46:16;;;;;;;22.60;9.63;;;7.70;96.20;;;;;;5008771;28;20427;-49
2022/01/12 13:49:07;;;;;;;17.45;8.90;;;7.60;96.20;;;;;;5010949;28;20361;-49
2022/01/12 13:51:39;;;;;;;17.40;7.97;;;7.70;96.10;;;;;;5008999;28;20527;-49
2022/01/12 13:54:14;;;;;;;17.33;8.32;;;7.70;96.10;;;;;;5009417;28;20026;-49
2022/01/12 13:56:49;;;;;;;15.63;8.20;;;7.70;96.10;;;;;;5008051;28;20119;-49
2022/01/12 13:59:16;;;;;;;23.08;9.20;;;7.70;96.10;;;;;;5011097;28;20014;-49
2022/01/12 14:01:43;;;;;;;13.93;6.55;;;7.70;96.10;;;;;;5009234;28;20181;-49
2022/01/12 14:04:17;;;;;;;17.20;7.55;;;7.70;96.00;;;;;;5010713;28;20053;-49
2022/01/12 14:06:46;;;;;;;17.88;8.45;;;7.70;96.00;;;;;;5008825;28;20068;-49